Time;durP1;ratioP1;P1;durP2;ratioP2;P2;SDS_P1;SDS_P2;PMS_P1;PMS_P2;Temp;Humidity;BMP_temperature;BMP_pressure;BME280_temperature;BME280_humidity;BME280_pressure;Samples;Min_cycle;Max_cycle;Signal;HPM_P1;HPM_P2
2023/01/22 00:01:18;;;;;;;9.97;7.13;;;;;;;0.21;100.00;102172.75;5032990;28;20194;-80
2023/01/22 00:03:47;;;;;;;12.43;6.00;;;;;;;0.22;100.00;102179.75;5033639;28;20202;-81
2023/01/22 00:06:15;;;;;;;9.47;6.10;;;;;;;0.22;100.00;102181.50;5032804;28;20210;-80
2023/01/22 00:08:42;;;;;;;10.63;6.97;;;;;;;0.22;100.00;102169.28;5034230;28;20206;-80
2023/01/22 00:11:11;;;;;;;11.40;6.50;;;;;;;0.23;100.00;102170.16;5033250;28;20206;-81
2023/01/22 00:13:38;;;;;;;9.13;5.67;;;;;;;0.22;100.00;102165.78;5032593;28;20217;-80
2023/01/22 00:16:05;;;;;;;11.17;6.93;;;;;;;0.20;100.00;102172.75;5032730;28;20230;-80
2023/01/22 00:18:32;;;;;;;13.00;7.57;;;;;;;0.20;100.00;102165.75;5031820;28;20578;-81
2023/01/22 00:20:59;;;;;;;10.30;6.70;;;;;;;0.21;100.00;102164.03;5031829;28;20213;-80
2023/01/22 00:23:26;;;;;;;10.47;7.30;;;;;;;0.19;100.00;102166.63;5032497;28;20673;-80
2023/01/22 00:26:00;;;;;;;9.50;5.80;;;;;;;0.20;100.00;102164.88;5031780;28;20734;-80
2023/01/22 00:28:28;;;;;;;10.03;6.67;;;;;;;0.21;100.00;102162.28;5031893;28;20220;-81
2023/01/22 00:30:58;;;;;;;8.13;5.23;;;;;;;0.22;100.00;102158.78;5031523;28;20191;-79
2023/01/22 00:33:24;;;;;;;9.93;6.67;;;;;;;0.22;100.00;102165.78;5032128;28;20701;-79
2023/01/22 00:35:50;;;;;;;8.97;5.60;;;;;;;0.22;100.00;102163.16;5031814;28;20765;-80
2023/01/22 00:38:17;;;;;;;9.93;6.93;;;;;;;0.21;100.00;102156.16;5031522;28;20801;-81
2023/01/22 00:40:43;;;;;;;6.67;5.20;;;;;;;0.21;100.00;102156.16;5031675;28;20571;-81
2023/01/22 00:43:10;;;;;;;8.73;4.67;;;;;;;0.20;100.00;102152.66;5032067;28;20547;-80
2023/01/22 00:45:38;;;;;;;9.90;6.90;;;;;;;0.22;100.00;102160.53;5030676;28;20245;-80
2023/01/22 00:48:06;;;;;;;9.20;6.57;;;;;;;0.24;100.00;102158.78;5031402;28;20632;-80
2023/01/22 00:50:32;;;;;;;9.00;5.33;;;;;;;0.26;100.00;102159.69;5034147;28;20210;-81
2023/01/22 00:52:59;;;;;;;7.57;6.33;;;;;;;0.27;100.00;102157.06;5027789;28;20198;-80
2023/01/22 00:55:25;;;;;;;9.67;6.33;;;;;;;0.27;100.00;102158.81;5036231;28;20237;-79
2023/01/22 00:57:52;;;;;;;7.43;6.10;;;;;;;0.27;100.00;102148.34;5025503;28;20594;-81
2023/01/22 01:00:19;;;;;;;8.57;6.23;;;;;;;0.25;100.00;102153.56;5032605;28;20686;-80
2023/01/22 01:05:30;;;;;;;7.97;5.90;;;;;;;0.27;100.00;102156.19;5037567;28;20307;-81
2023/01/22 01:07:57;;;;;;;9.27;5.80;;;;;;;0.26;100.00;102141.34;5038018;28;20229;-81
2023/01/22 01:10:23;;;;;;;8.90;5.80;;;;;;;0.27;100.00;102140.47;5037588;28;20939;-81
2023/01/22 01:12:50;;;;;;;7.83;4.97;;;;;;;0.27;100.00;102150.94;5037541;28;20774;-80
2023/01/22 01:15:16;;;;;;;9.83;5.57;;;;;;;0.27;100.00;102148.34;5036557;28;20607;-79
2023/01/22 01:17:45;;;;;;;8.00;5.57;;;;;;;0.27;100.00;102148.34;5029863;28;20225;-81
2023/01/22 01:20:13;;;;;;;7.27;5.63;;;;;;;0.26;100.00;102141.34;5036208;28;20454;-79
2023/01/22 01:22:39;;;;;;;7.10;5.00;;;;;;;0.26;100.00;102141.34;5035356;28;20217;-81
2023/01/22 01:25:06;;;;;;;8.03;5.17;;;;;;;0.26;100.00;102139.59;5016190;28;20229;-80
2023/01/22 01:27:32;;;;;;;8.90;5.67;;;;;;;0.27;100.00;102137.84;5015176;28;20219;-80
2023/01/22 01:29:59;;;;;;;6.27;5.10;;;;;;;0.25;100.00;102139.59;5015169;28;20234;-79
2023/01/22 01:32:26;;;;;;;8.90;5.80;;;;;;;0.25;100.00;102139.59;5014034;28;20203;-79
2023/01/22 01:34:52;;;;;;;7.97;5.13;;;;;;;0.25;100.00;102136.97;5033799;28;20611;-80
2023/01/22 01:37:20;;;;;;;9.00;5.17;;;;;;;0.26;100.00;102136.97;5034619;28;20249;-79
2023/01/22 01:39:51;;;;;;;9.13;5.53;;;;;;;0.27;100.00;102128.25;5034212;28;20234;-79
2023/01/22 01:42:23;;;;;;;9.90;4.57;;;;;;;0.29;100.00;102128.25;5034169;28;20190;-81
2023/01/22 01:45:20;;;;;;;8.97;5.43;;;;;;;0.29;100.00;102141.34;5034123;28;20233;-80
2023/01/22 01:47:50;;;;;;;7.70;5.20;;;;;;;0.30;100.00;102137.88;5034933;28;20225;-80
2023/01/22 01:50:17;;;;;;;6.27;4.80;;;;;;;0.29;100.00;102129.13;5034427;28;20221;-80
2023/01/22 01:52:45;;;;;;;6.77;5.00;;;;;;;0.30;100.00;102130.88;5019969;28;20211;-79
2023/01/22 01:55:12;;;;;;;6.43;4.63;;;;;;;0.31;100.00;102129.13;5014414;28;20223;-80
2023/01/22 01:57:41;;;;;;;6.10;4.70;;;;;;;0.32;100.00;102130.88;5014064;28;20234;-79
2023/01/22 02:00:12;;;;;;;7.93;4.73;;;;;;;0.31;100.00;102119.53;5033476;28;20207;-80
2023/01/22 02:02:39;;;;;;;5.43;4.23;;;;;;;0.32;100.00;102138.75;5033007;28;20657;-80
2023/01/22 02:05:08;;;;;;;6.57;3.57;;;;;;;0.31;100.00;102131.75;5034215;28;20237;-79
2023/01/22 02:07:34;;;;;;;7.80;4.60;;;;;;;0.30;100.00;102128.25;5034247;28;20427;-80
2023/01/22 02:10:05;;;;;;;2.10;1.63;;;;;;;0.33;100.00;102127.41;5033488;28;20206;-79
2023/01/22 02:12:32;;;;;;;7.13;3.70;;;;;;;0.32;100.00;102123.03;5032927;28;20210;-80
2023/01/22 02:15:00;;;;;;;5.90;4.63;;;;;;;0.32;100.00;102129.13;5034303;28;20730;-80
2023/01/22 02:17:27;;;;;;;4.93;4.43;;;;;;;0.33;100.00;102130.00;5034802;28;20805;-80
2023/01/22 02:19:55;;;;;;;4.87;3.73;;;;;;;0.33;100.00;102130.88;5035337;28;20678;-80
2023/01/22 02:22:27;;;;;;;4.87;2.97;;;;;;;0.32;100.00;102128.25;5034795;28;20202;-79
2023/01/22 02:24:54;;;;;;;5.70;4.43;;;;;;;0.33;100.00;102132.63;5035758;28;20249;-80
2023/01/22 02:27:20;;;;;;;5.13;3.60;;;;;;;0.32;100.00;102128.25;5034473;28;20218;-79
2023/01/22 02:29:47;;;;;;;6.07;3.60;;;;;;;0.33;100.00;102125.66;5033592;28;20714;-80
2023/01/22 02:32:13;;;;;;;5.20;4.43;;;;;;;0.33;100.00;102124.78;5033081;28;20206;-80
2023/01/22 02:34:40;;;;;;;4.63;3.63;;;;;;;0.32;100.00;102126.53;5033245;28;20234;-79
2023/01/22 02:37:07;;;;;;;4.20;3.37;;;;;;;0.33;100.00;102130.88;5032658;28;20233;-79
2023/01/22 02:39:34;;;;;;;5.33;3.57;;;;;;;0.32;100.00;102131.75;5032501;28;20214;-79
2023/01/22 02:42:01;;;;;;;5.93;4.10;;;;;;;0.33;100.00;102127.41;5032648;28;20210;-80
2023/01/22 02:44:28;;;;;;;5.27;3.97;;;;;;;0.31;100.00;102124.75;5032237;28;20582;-79
2023/01/22 02:46:54;;;;;;;5.43;3.77;;;;;;;0.33;100.00;102135.25;5032973;28;20716;-79
2023/01/22 02:49:20;;;;;;;4.27;3.70;;;;;;;0.32;100.00;102131.75;5032785;28;20662;-79
2023/01/22 02:51:47;;;;;;;6.73;4.10;;;;;;;0.32;100.00;102129.13;5032093;28;20249;-80
2023/01/22 02:54:13;;;;;;;4.57;3.17;;;;;;;0.31;100.00;102132.63;5032591;28;20225;-80
2023/01/22 02:56:41;;;;;;;7.33;3.83;;;;;;;0.30;100.00;102119.53;5035251;28;20587;-80
2023/01/22 02:59:08;;;;;;;4.30;3.47;;;;;;;0.32;100.00;102131.75;5053383;28;20208;-79
2023/01/22 03:01:34;;;;;;;5.33;3.13;;;;;;;0.32;100.00;102133.50;5055167;28;20213;-79
2023/01/22 03:04:09;;;;;;;4.27;3.80;;;;;;;0.32;100.00;102125.66;5054336;28;20233;-79
2023/01/22 03:06:37;;;;;;;5.27;3.33;;;;;;;0.30;100.00;102122.16;5054870;28;20197;-78
2023/01/22 03:09:03;;;;;;;4.57;3.37;;;;;;;0.31;100.00;102121.28;5055000;28;20202;-79
2023/01/22 03:11:31;;;;;;;4.97;3.80;;;;;;;0.30;100.00;102119.53;5054624;28;20212;-78
2023/01/22 03:22:14;;;;;;;5.37;3.70;;;;;;;0.27;100.00;102104.66;5053780;28;20224;-80
2023/01/22 03:24:41;;;;;;;4.27;3.07;;;;;;;0.28;100.00;102110.78;5053800;28;20847;-79
2023/01/22 03:27:07;;;;;;;6.00;3.90;;;;;;;0.27;100.00;102120.38;5053620;28;20212;-79
2023/01/22 03:29:37;;;;;;;5.80;4.50;;;;;;;0.29;100.00;102115.16;5053013;28;20206;-79
2023/01/22 03:32:03;;;;;;;5.40;3.90;;;;;;;0.29;100.00;102112.53;5040773;28;20225;-78
2023/01/22 03:34:30;;;;;;;4.93;3.97;;;;;;;0.28;100.00;102114.28;5033510;28;20237;-78
2023/01/22 03:36:56;;;;;;;5.23;3.70;;;;;;;0.28;100.00;102121.25;5033397;28;20206;-79
2023/01/22 03:39:26;;;;;;;4.83;4.27;;;;;;;0.27;100.00;102112.53;5033144;28;20234;-79
2023/01/22 03:41:52;;;;;;;5.40;3.93;;;;;;;0.28;100.00;102105.53;5033371;28;20214;-78
2023/01/22 03:44:19;;;;;;;4.97;3.70;;;;;;;0.29;100.00;102113.41;5033863;28;20237;-78
2023/01/22 03:46:47;;;;;;;5.63;3.80;;;;;;;0.28;100.00;102109.03;5033724;28;20579;-78
2023/01/22 03:49:14;;;;;;;4.33;3.40;;;;;;;0.27;100.00;102119.50;5033877;28;20568;-78
2023/01/22 03:51:40;;;;;;;4.10;3.23;;;;;;;0.28;100.00;102118.63;5034208;28;20206;-79
2023/01/22 03:54:07;;;;;;;5.20;3.70;;;;;;;0.26;100.00;102113.41;5033886;28;20262;-78
2023/01/22 03:56:33;;;;;;;5.47;3.83;;;;;;;0.28;100.00;102121.25;5018256;28;20205;-78
2023/01/22 03:59:00;;;;;;;5.53;4.00;;;;;;;0.28;100.00;102116.03;5039974;28;20226;-78
2023/01/22 04:01:28;;;;;;;5.50;3.83;;;;;;;0.27;100.00;102120.38;5020866;28;20203;-78
2023/01/22 04:03:56;;;;;;;4.60;3.53;;;;;;;0.26;100.00;102123.00;5015971;28;20206;-78
2023/01/22 04:06:23;;;;;;;5.00;4.47;;;;;;;0.26;100.00;102121.25;5033549;28;20671;-78
2023/01/22 04:08:53;;;;;;;6.00;4.10;;;;;;;0.27;100.00;102122.13;5035539;28;20567;-78
2023/01/22 04:11:20;;;;;;;3.83;2.97;;;;;;;0.27;100.00;102124.75;5036067;28;20210;-78
2023/01/22 04:13:47;;;;;;;4.90;3.50;;;;;;;0.26;100.00;102123.00;5018533;28;20221;-78
2023/01/22 04:16:14;;;;;;;4.63;3.50;;;;;;;0.27;100.00;102124.75;5031488;28;20198;-77
2023/01/22 04:18:41;;;;;;;4.50;3.50;;;;;;;0.26;100.00;102120.38;5033554;28;20222;-78
2023/01/22 04:21:09;;;;;;;4.27;3.40;;;;;;;0.26;100.00;102129.13;5034584;28;20248;-78
2023/01/22 04:23:35;;;;;;;4.23;3.10;;;;;;;0.27;100.00;102127.38;5033065;28;20206;-78
2023/01/22 04:26:02;;;;;;;6.93;4.50;;;;;;;0.26;100.00;102128.25;5037441;28;20768;-78
2023/01/22 04:28:28;;;;;;;4.63;3.07;;;;;;;0.26;100.00;102129.13;5037587;28;20217;-79
2023/01/22 04:30:55;;;;;;;3.60;3.17;;;;;;;0.27;100.00;102127.38;5038524;28;20209;-78
2023/01/22 04:33:22;;;;;;;5.33;4.10;;;;;;;0.26;100.00;102125.63;5036215;28;20213;-78
2023/01/22 04:35:50;;;;;;;4.13;3.10;;;;;;;0.27;100.00;102124.75;5032619;28;20222;-78
2023/01/22 04:38:18;;;;;;;3.60;2.83;;;;;;;0.27;100.00;102124.75;5039283;28;20233;-78
2023/01/22 04:40:44;;;;;;;3.60;3.10;;;;;;;0.26;100.00;102117.75;5039386;28;20556;-78
2023/01/22 04:43:11;;;;;;;3.73;3.33;;;;;;;0.26;100.00;102118.63;5040275;28;20229;-77
2023/01/22 04:45:38;;;;;;;5.27;2.87;;;;;;;0.26;100.00;102121.25;5041863;28;20233;-77
2023/01/22 04:48:05;;;;;;;3.50;2.77;;;;;;;0.26;100.00;102118.63;5036408;28;20213;-78
2023/01/22 04:50:33;;;;;;;4.03;2.80;;;;;;;0.26;100.00;102118.63;5037027;28;20203;-78
2023/01/22 04:53:00;;;;;;;3.57;2.73;;;;;;;0.26;100.00;102126.50;5039486;28;20213;-78
2023/01/22 04:55:29;;;;;;;3.33;2.87;;;;;;;0.26;100.00;102120.38;5033661;28;20233;-78
2023/01/22 04:57:56;;;;;;;3.13;2.60;;;;;;;0.26;100.00;102113.41;5034676;28;20226;-78
2023/01/22 05:00:23;;;;;;;4.23;2.90;;;;;;;0.27;100.00;102122.13;5036364;28;20239;-77
2023/01/22 05:02:49;;;;;;;3.67;2.80;;;;;;;0.26;100.00;102123.00;5035825;28;20203;-77
2023/01/22 05:05:16;;;;;;;3.87;2.90;;;;;;;0.27;100.00;102127.38;5027860;28;20237;-77
2023/01/22 05:07:43;;;;;;;3.77;3.13;;;;;;;0.26;100.00;102131.72;5041042;28;20197;-78
2023/01/22 05:10:10;;;;;;;3.30;2.83;;;;;;;0.28;100.00;102130.00;5028909;28;20206;-78
2023/01/22 05:12:38;;;;;;;3.80;2.53;;;;;;;0.27;100.00;102132.59;5033338;28;20214;-77
2023/01/22 05:15:05;;;;;;;4.40;2.90;;;;;;;0.28;100.00;102136.97;5034480;28;20238;-78
2023/01/22 05:17:32;;;;;;;3.67;3.17;;;;;;;0.29;100.00;102131.75;5035301;28;20650;-77
2023/01/22 05:19:58;;;;;;;4.70;3.07;;;;;;;0.29;100.00;102123.88;5035962;28;20214;-77
2023/01/22 05:22:24;;;;;;;4.50;3.70;;;;;;;0.29;100.00;102133.50;5033933;28;20221;-77
2023/01/22 05:24:51;;;;;;;4.60;3.60;;;;;;;0.27;100.00;102130.88;5032723;28;20248;-77
2023/01/22 05:27:17;;;;;;;4.10;3.33;;;;;;;0.30;100.00;102137.88;5037049;28;20685;-77
2023/01/22 05:29:45;;;;;;;4.50;3.10;;;;;;;0.29;100.00;102136.13;5032687;28;20218;-77
2023/01/22 05:32:12;;;;;;;4.70;3.33;;;;;;;0.28;100.00;102132.63;5033426;28;20217;-77
2023/01/22 05:34:39;;;;;;;5.17;3.33;;;;;;;0.29;100.00;102134.38;5031615;28;20229;-77
2023/01/22 05:37:05;;;;;;;3.93;3.13;;;;;;;0.29;100.00;102142.22;5031345;28;20699;-77
2023/01/22 05:39:31;;;;;;;4.17;3.53;;;;;;;0.30;100.00;102136.13;5033757;28;20828;-77
2023/01/22 05:41:58;;;;;;;5.17;3.00;;;;;;;0.30;100.00;102153.59;5028984;28;20213;-77
2023/01/22 05:44:25;;;;;;;3.00;2.40;;;;;;;0.30;100.00;102149.22;5025975;28;20230;-78
2023/01/22 05:46:52;;;;;;;4.60;3.03;;;;;;;0.28;100.00;102145.72;5030183;28;20301;-78
2023/01/22 05:49:19;;;;;;;3.27;2.77;;;;;;;0.29;100.00;102151.84;5028175;28;20206;-77
2023/01/22 05:51:45;;;;;;;4.07;3.20;;;;;;;0.27;100.00;102149.22;5026209;28;20203;-77
2023/01/22 05:54:12;;;;;;;3.53;2.97;;;;;;;0.26;100.00;102142.22;5030620;28;20233;-77
2023/01/22 05:56:38;;;;;;;3.93;3.30;;;;;;;0.27;100.00;102158.81;5025942;28;20199;-77
2023/01/22 05:59:04;;;;;;;3.63;2.33;;;;;;;0.27;100.00;102153.56;5025951;28;20765;-77
2023/01/22 06:01:31;;;;;;;4.23;2.83;;;;;;;0.25;100.00;102150.06;5026545;28;20221;-77
2023/01/22 06:03:59;;;;;;;3.87;2.93;;;;;;;0.24;100.00;102158.78;5022574;28;20216;-77
2023/01/22 06:06:25;;;;;;;4.00;3.07;;;;;;;0.24;100.00;102153.56;5021851;28;20581;-77
2023/01/22 06:08:52;;;;;;;3.93;2.77;;;;;;;0.23;100.00;102151.81;5026317;28;20685;-77
2023/01/22 06:11:19;;;;;;;3.20;2.80;;;;;;;0.25;100.00;102163.16;5017597;28;20575;-77
2023/01/22 06:13:45;;;;;;;3.40;2.80;;;;;;;0.25;100.00;102163.16;5021838;28;20211;-77
2023/01/22 06:16:12;;;;;;;3.43;2.63;;;;;;;0.26;100.00;102164.91;5026967;28;20206;-77
2023/01/22 06:18:38;;;;;;;3.53;2.83;;;;;;;0.25;100.00;102163.16;5023274;28;20227;-77
2023/01/22 06:21:08;;;;;;;3.97;2.60;;;;;;;0.26;100.00;102167.53;5026693;28;20206;-77
2023/01/22 06:23:35;;;;;;;2.60;2.27;;;;;;;0.25;100.00;102169.28;5027613;28;20221;-77
2023/01/22 06:26:03;;;;;;;3.70;2.80;;;;;;;0.26;100.00;102167.53;5023730;28;20214;-78
2023/01/22 06:28:30;;;;;;;3.93;2.87;;;;;;;0.27;100.00;102169.28;5022659;28;20222;-77
2023/01/22 06:30:58;;;;;;;3.97;2.83;;;;;;;0.27;100.00;102172.78;5029012;28;20615;-78
2023/01/22 06:33:25;;;;;;;4.10;3.23;;;;;;;0.28;100.00;102168.44;5020999;28;20210;-77
2023/01/22 06:35:53;;;;;;;4.17;3.30;;;;;;;0.28;100.00;102171.03;5032386;28;20222;-77
2023/01/22 06:38:21;;;;;;;3.83;2.87;;;;;;;0.29;100.00;102170.19;5023582;28;20230;-77
2023/01/22 06:40:51;;;;;;;3.97;3.17;;;;;;;0.28;100.00;102168.44;5030985;28;20206;-78
2023/01/22 06:43:17;;;;;;;4.43;2.83;;;;;;;0.29;100.00;102175.41;5031442;28;20210;-78
2023/01/22 06:45:44;;;;;;;4.13;3.00;;;;;;;0.29;100.00;102176.28;5032717;28;20582;-78
2023/01/22 06:48:10;;;;;;;4.57;3.17;;;;;;;0.30;100.00;102171.94;5026842;28;20668;-78
2023/01/22 06:50:36;;;;;;;4.57;3.40;;;;;;;0.30;100.00;102175.44;5032197;28;20202;-78
2023/01/22 06:53:03;;;;;;;4.53;3.53;;;;;;;0.30;100.00;102177.16;5034327;28;20206;-78
2023/01/22 06:55:31;;;;;;;4.20;3.57;;;;;;;0.30;100.00;102182.41;5027557;28;20694;-78
2023/01/22 06:57:57;;;;;;;6.33;4.13;;;;;;;0.28;100.00;102179.78;5026420;28;20210;-78
2023/01/22 07:00:24;;;;;;;4.60;3.40;;;;;;;0.30;100.00;102190.28;5030030;28;20221;-78
2023/01/22 07:02:53;;;;;;;5.30;3.00;;;;;;;0.31;100.00;102192.91;5032279;28;20210;-78
2023/01/22 07:05:19;;;;;;;5.70;3.87;;;;;;;0.32;100.00;102197.28;5028833;28;20317;-79
2023/01/22 07:07:46;;;;;;;5.10;3.50;;;;;;;0.31;100.00;102199.88;5027654;28;20229;-78
2023/01/22 07:10:13;;;;;;;5.33;3.87;;;;;;;0.31;100.00;102197.25;5030408;28;20207;-79
2023/01/22 07:12:41;;;;;;;5.30;3.97;;;;;;;0.33;100.00;102211.25;5028638;28;20603;-77
2023/01/22 07:15:08;;;;;;;4.80;3.83;;;;;;;0.31;100.00;102213.00;5037107;28;20233;-79
2023/01/22 07:17:36;;;;;;;5.03;4.07;;;;;;;0.31;100.00;102210.38;5030933;28;20241;-78
2023/01/22 07:20:03;;;;;;;5.47;4.13;;;;;;;0.32;100.00;102213.00;5020379;28;20223;-78
2023/01/22 07:22:30;;;;;;;5.17;3.77;;;;;;;0.31;100.00;102218.22;5026568;28;20798;-78
2023/01/22 07:24:56;;;;;;;6.20;4.10;;;;;;;0.32;100.00;102222.59;5032078;28;20686;-79
2023/01/22 07:27:23;;;;;;;4.70;3.97;;;;;;;0.31;100.00;102220.84;5026172;28;20564;-78
2023/01/22 07:29:51;;;;;;;4.97;3.47;;;;;;;0.31;100.00;102226.97;5028164;28;20198;-79
2023/01/22 07:32:17;;;;;;;4.77;3.50;;;;;;;0.32;100.00;102220.84;5028972;28;20270;-79
2023/01/22 07:34:43;;;;;;;7.73;4.33;;;;;;;0.32;100.00;102225.22;5029556;28;20561;-79
2023/01/22 07:37:10;;;;;;;5.97;4.60;;;;;;;0.32;100.00;102233.09;5032704;28;20562;-79
2023/01/22 07:39:36;;;;;;;5.50;4.20;;;;;;;0.32;100.00;102227.84;5034964;28;20221;-79
2023/01/22 07:42:03;;;;;;;5.07;4.00;;;;;;;0.35;100.00;102230.47;5029950;28;20219;-78
2023/01/22 07:44:30;;;;;;;4.83;3.57;;;;;;;0.35;100.00;102230.47;5035825;28;20234;-80
2023/01/22 07:46:57;;;;;;;4.87;3.47;;;;;;;0.36;100.00;102232.19;5033395;28;20218;-78
2023/01/22 07:49:24;;;;;;;5.07;4.07;;;;;;;0.38;100.00;102243.56;5034081;28;20681;-80
2023/01/22 07:51:50;;;;;;;5.23;4.27;;;;;;;0.42;100.00;102245.34;5027973;28;20201;-79
2023/01/22 07:54:18;;;;;;;4.90;3.67;;;;;;;0.42;100.00;102247.97;5029304;28;20226;-79
2023/01/22 07:56:45;;;;;;;6.13;3.83;;;;;;;0.43;100.00;102244.47;5030583;28;20260;-79
2023/01/22 07:59:11;;;;;;;4.67;3.93;;;;;;;0.44;100.00;102246.22;5040053;28;20228;-79
2023/01/22 08:01:38;;;;;;;5.53;3.70;;;;;;;0.46;100.00;102239.25;5030868;28;20457;-79
2023/01/22 08:04:06;;;;;;;4.90;3.87;;;;;;;0.46;100.00;102244.50;5034985;28;20233;-78
2023/01/22 08:06:33;;;;;;;6.30;4.50;;;;;;;0.47;100.00;102238.38;5031472;28;20210;-79
2023/01/22 08:08:59;;;;;;;6.43;4.73;;;;;;;0.52;100.00;102246.25;5033590;28;20213;-78
2023/01/22 08:11:26;;;;;;;8.07;5.30;;;;;;;0.54;100.00;102249.75;5030755;28;20206;-79
2023/01/22 08:13:53;;;;;;;11.27;6.27;;;;;;;0.56;100.00;102253.25;5031623;28;20209;-78
2023/01/22 08:16:20;;;;;;;10.60;5.40;;;;;;;0.58;100.00;102251.50;5031742;28;20207;-79
2023/01/22 08:18:46;;;;;;;7.37;5.50;;;;;;;0.60;100.00;102253.25;5031886;28;20237;-79
2023/01/22 08:21:14;;;;;;;5.20;4.70;;;;;;;0.62;100.00;102253.28;5035229;28;20210;-79
2023/01/22 08:23:41;;;;;;;6.87;4.27;;;;;;;0.63;100.00;102250.66;5033171;28;20199;-79
2023/01/22 08:26:08;;;;;;;6.63;4.67;;;;;;;0.65;100.00;102259.41;5028529;28;20703;-79
2023/01/22 08:28:36;;;;;;;7.07;4.23;;;;;;;0.68;100.00;102256.81;5024696;28;20210;-79
2023/01/22 08:31:03;;;;;;;5.10;4.40;;;;;;;0.72;100.00;102259.44;5031469;28;20209;-79
2023/01/22 08:33:33;;;;;;;6.53;5.07;;;;;;;0.72;100.00;102262.06;5030334;28;20210;-79
2023/01/22 08:35:59;;;;;;;5.47;4.20;;;;;;;0.75;100.00;102259.41;5034307;28;20226;-79
2023/01/22 08:38:27;;;;;;;5.20;4.20;;;;;;;0.76;100.00;102261.16;5027835;28;20218;-79
2023/01/22 08:40:53;;;;;;;5.63;3.73;;;;;;;0.79;100.00;102261.19;5032606;28;20619;-78
2023/01/22 08:43:20;;;;;;;7.40;4.63;;;;;;;0.82;100.00;102262.06;5025062;28;20670;-79
2023/01/22 08:45:49;;;;;;;6.87;5.07;;;;;;;0.85;100.00;102261.22;5041754;28;20230;-79
2023/01/22 08:48:15;;;;;;;7.13;5.00;;;;;;;0.90;100.00;102262.06;5031603;28;20211;-79
2023/01/22 08:50:42;;;;;;;5.40;4.10;;;;;;;0.94;100.00;102267.34;5029836;28;20194;-80
2023/01/22 08:53:08;;;;;;;6.60;5.03;;;;;;;0.99;100.00;102265.59;5032070;28;20621;-80
2023/01/22 08:55:36;;;;;;;6.23;4.53;;;;;;;1.06;100.00;102265.63;5031844;28;20238;-79
2023/01/22 08:58:02;;;;;;;7.20;4.93;;;;;;;1.12;100.00;102273.50;5033717;28;20682;-79
2023/01/22 09:00:29;;;;;;;5.20;3.87;;;;;;;1.15;100.00;102277.00;5038744;28;20915;-81
2023/01/22 09:02:58;;;;;;;5.33;4.17;;;;;;;1.19;100.00;102273.50;5028952;28;20209;-79
2023/01/22 09:05:25;;;;;;;6.97;4.43;;;;;;;1.21;100.00;102270.88;5040260;28;20260;-80
2023/01/22 09:07:52;;;;;;;6.00;4.60;;;;;;;1.22;100.00;102278.78;5036980;28;20662;-81
2023/01/22 09:10:18;;;;;;;6.40;4.37;;;;;;;1.21;100.00;102279.63;5029276;28;20218;-80
2023/01/22 09:12:46;;;;;;;6.40;4.57;;;;;;;1.22;100.00;102277.88;5030699;28;20198;-81
2023/01/22 09:15:13;;;;;;;5.40;4.20;;;;;;;1.20;100.00;102282.25;5038985;28;20619;-82
2023/01/22 09:17:41;;;;;;;5.93;4.20;;;;;;;1.18;100.00;102281.38;5040833;28;20799;-79
2023/01/22 09:20:08;;;;;;;5.47;4.23;;;;;;;1.15;100.00;102289.25;5031816;28;20283;-81
2023/01/22 09:22:35;;;;;;;5.67;3.83;;;;;;;1.13;100.00;102293.59;5033825;28;20214;-81
2023/01/22 09:25:02;;;;;;;4.80;3.70;;;;;;;1.12;100.00;102302.34;5034818;28;20226;-81
2023/01/22 09:27:28;;;;;;;6.37;4.53;;;;;;;1.11;100.00;102305.84;5036774;28;20233;-82
2023/01/22 09:29:56;;;;;;;8.37;6.17;;;;;;;1.08;100.00;102304.09;5034975;28;20655;-79
2023/01/22 09:32:22;;;;;;;5.30;3.93;;;;;;;1.08;100.00;102309.34;5033775;28;20213;-81
2023/01/22 09:34:49;;;;;;;6.63;4.23;;;;;;;1.04;100.00;102297.09;5035432;28;20226;-81
2023/01/22 09:37:15;;;;;;;5.10;4.07;;;;;;;1.01;100.00;102305.84;5032458;28;20221;-80
2023/01/22 09:39:42;;;;;;;5.77;4.60;;;;;;;0.99;100.00;102301.47;5024937;28;20234;-81
2023/01/22 09:42:17;;;;;;;5.73;4.20;;;;;;;0.98;100.00;102297.09;5037042;28;20294;-81
2023/01/22 09:44:48;;;;;;;5.97;3.87;;;;;;;0.97;100.00;102304.06;5032893;28;20226;-79
2023/01/22 09:47:19;;;;;;;4.77;3.87;;;;;;;0.99;100.00;102309.31;5032792;28;20202;-78
2023/01/22 09:49:54;;;;;;;5.43;3.73;;;;;;;0.99;100.00;102318.06;5035673;28;20196;-81
2023/01/22 09:52:25;;;;;;;6.70;3.77;;;;;;;0.99;100.00;102317.19;5039055;28;20202;-81
2023/01/22 09:54:52;;;;;;;4.77;3.93;;;;;;;0.98;100.00;102315.44;5031519;28;20237;-80
2023/01/22 09:57:18;;;;;;;5.83;4.67;;;;;;;0.99;100.00;102317.19;5033268;28;20206;-79
2023/01/22 09:59:48;;;;;;;5.03;4.10;;;;;;;1.00;100.00;102306.72;5036346;28;20230;-79
2023/01/22 10:02:24;;;;;;;6.17;4.90;;;;;;;1.02;100.00;102307.59;5028631;28;20205;-80
2023/01/22 10:04:55;;;;;;;6.03;4.30;;;;;;;1.05;100.00;102309.34;5029268;28;20228;-81
2023/01/22 10:07:26;;;;;;;15.00;5.07;;;;;;;1.08;100.00;102311.97;5037993;28;20205;-81
2023/01/22 10:09:56;;;;;;;6.27;4.13;;;;;;;1.09;100.00;102313.72;5036125;28;20674;-81
2023/01/22 10:12:22;;;;;;;4.80;4.20;;;;;;;1.10;100.00;102318.09;5026732;28;20301;-81
2023/01/22 10:14:51;;;;;;;4.20;3.70;;;;;;;1.11;100.00;102311.97;5027811;28;20579;-81
2023/01/22 10:17:23;;;;;;;5.57;4.07;;;;;;;1.12;100.00;102308.47;5033584;28;20199;-79
2023/01/22 10:19:53;;;;;;;7.77;4.10;;;;;;;1.13;100.00;102310.22;5029732;28;20225;-79
2023/01/22 10:22:22;;;;;;;4.80;4.07;;;;;;;1.14;100.00;102322.47;5033680;28;20222;-82
2023/01/22 10:24:49;;;;;;;5.40;3.90;;;;;;;1.13;100.00;102318.09;5030045;28;20225;-81
2023/01/22 10:27:30;;;;;;;5.20;4.27;;;;;;;1.15;100.00;102323.34;5025551;28;20218;-80
2023/01/22 10:30:01;;;;;;;4.40;3.90;;;;;;;1.14;100.00;102314.59;5032466;28;20226;-81
2023/01/22 10:32:36;;;;;;;5.23;4.17;;;;;;;1.17;100.00;102312.00;5035114;28;20208;-81
2023/01/22 10:35:19;;;;;;;6.53;4.90;;;;;;;1.15;100.00;102316.34;5037893;28;20221;-81
2023/01/22 10:37:53;;;;;;;6.30;4.63;;;;;;;1.17;100.00;102313.75;5037222;28;20576;-81
2023/01/22 10:40:37;;;;;;;4.93;4.00;;;;;;;1.14;100.00;102309.34;5039659;28;20239;-81
2023/01/22 10:43:06;;;;;;;5.90;4.10;;;;;;;1.17;100.00;102316.38;5039148;28;20882;-82
2023/01/22 10:45:32;;;;;;;5.27;4.03;;;;;;;1.18;100.00;102312.88;5031707;28;20601;-82
2023/01/22 10:48:12;;;;;;;6.80;4.60;;;;;;;1.18;100.00;102313.75;5035462;28;20213;-81
2023/01/22 10:50:39;;;;;;;5.30;4.03;;;;;;;1.20;100.00;102312.00;5030097;28;20210;-81
2023/01/22 10:53:18;;;;;;;4.37;3.73;;;;;;;1.18;100.00;102313.75;5032578;28;20206;-83
2023/01/22 10:55:51;;;;;;;5.07;4.10;;;;;;;1.18;100.00;102319.00;5034697;28;20758;-83
2023/01/22 10:58:20;;;;;;;6.23;4.70;;;;;;;1.18;100.00;102326.00;5040153;28;20213;-82
2023/01/22 11:00:56;;;;;;;4.80;4.20;;;;;;;1.14;100.00;102311.09;5041812;28;20241;-83
2023/01/22 11:03:30;;;;;;;4.97;3.80;;;;;;;1.13;100.00;102314.59;5029411;28;20205;-83
2023/01/22 11:06:00;;;;;;;6.30;4.30;;;;;;;1.12;100.00;102315.47;5043256;28;21067;-82
2023/01/22 11:08:30;;;;;;;5.60;4.37;;;;;;;1.10;100.00;102318.09;5037411;28;20216;-82
2023/01/22 11:11:01;;;;;;;6.03;4.93;;;;;;;1.09;100.00;102318.97;5030668;28;21511;-83
2023/01/22 11:13:35;;;;;;;5.43;4.03;;;;;;;1.09;100.00;102321.59;5034198;28;20215;-83
2023/01/22 11:16:07;;;;;;;5.90;4.83;;;;;;;1.08;100.00;102316.31;5028372;28;20230;-83
2023/01/22 11:18:38;;;;;;;4.43;4.03;;;;;;;1.08;100.00;102326.81;5033236;28;20207;-83
2023/01/22 11:21:14;;;;;;;5.47;4.97;;;;;;;1.07;100.00;102319.84;5035872;28;20237;-84
2023/01/22 11:23:48;;;;;;;6.77;5.33;;;;;;;1.07;100.00;102320.72;5038469;28;20329;-83
2023/01/22 11:26:27;;;;;;;7.10;5.27;;;;;;;1.10;100.00;102325.09;4990513;28;1104145;-82
2023/01/22 11:29:04;;;;;;;6.23;4.80;;;;;;;1.09;100.00;102329.44;5027247;28;20202;-83
2023/01/22 11:31:44;;;;;;;5.97;5.17;;;;;;;1.10;100.00;102319.84;5035884;28;20237;-83
2023/01/22 11:34:29;;;;;;;5.53;4.93;;;;;;;1.10;100.00;102320.72;5039203;28;20225;-84
2023/01/22 11:37:04;;;;;;;5.93;5.27;;;;;;;1.13;100.00;102319.84;5033817;28;20574;-83
2023/01/22 11:39:48;;;;;;;6.43;4.27;;;;;;;1.10;100.00;102310.22;5033377;28;20202;-83